DLH33K LPPR-EDDM
Flight info
| Callsign | DLH33K |
|---|---|
| Flight time | 2h 29m |
| Altitude | 36000 |
| Route | BELDU DCT ADORO DCT FITSE DCT DGO/N0428F380 DCT LPA DCT GOSVI DCT TOPTU DCT TOU DCT GAI DCT MEN DCT NINUN DCT LATAM DCT ETREK DCT LTP DCT SOPLO DCT OMASI DCT KINNI DCT SOSAL DCT KORED DCT BERSU N871 DITON/N0427F370 DCT NUNRI T103 BETOS BETOS1A |
| Aircraft | A21N/M-SDE2E3FGIJ1LORWXYZ/HB1 |
Departure
| Time | 2026-05-01 12:42 |
|---|---|
| Airport | Francisco de Sá Carneiro Airport (LPPR) |
Arrival
| Time | 2026-05-01 15:11 |
|---|---|
| Airport | Munich Airport (EDDM) |
| Time | Latitude | Longitude | Altitude | Speed | Heading |
|---|---|---|---|---|---|
| 2026-05-01 11:52 | 41.23830 | -8.67395 | 250 ft | 0 kts | 82° |
| 2026-05-01 12:33 | 41.23829 | -8.67403 | 249 ft | 4 kts | 83° |
| 2026-05-01 12:33 | 41.23828 | -8.67437 | 247 ft | 4 kts | 96° |
| 2026-05-01 12:33 | 41.23835 | -8.67469 | 245 ft | 5 kts | 128° |
| 2026-05-01 12:33 | 41.23849 | -8.67482 | 244 ft | 3 kts | 169° |
| 2026-05-01 12:37 | 41.23848 | -8.67482 | 244 ft | 1 kts | 169° |
| 2026-05-01 12:37 | 41.23829 | -8.67477 | 244 ft | 4 kts | 169° |
| 2026-05-01 12:38 | 41.23796 | -8.67469 | 244 ft | 6 kts | 169° |
| 2026-05-01 12:38 | 41.23751 | -8.67457 | 244 ft | 7 kts | 169° |
| 2026-05-01 12:38 | 41.23695 | -8.67442 | 243 ft | 9 kts | 168° |
| 2026-05-01 12:38 | 41.23634 | -8.67470 | 242 ft | 11 kts | 244° |
| 2026-05-01 12:39 | 41.23618 | -8.67573 | 238 ft | 12 kts | 259° |
| 2026-05-01 12:39 | 41.23607 | -8.67646 | 238 ft | 0 kts | 259° |
| 2026-05-01 12:40 | 41.23606 | -8.67651 | 238 ft | 3 kts | 259° |
| 2026-05-01 12:41 | 41.23599 | -8.67701 | 238 ft | 8 kts | 259° |
| 2026-05-01 12:41 | 41.23590 | -8.67789 | 238 ft | 10 kts | 282° |
| 2026-05-01 12:41 | 41.23626 | -8.67818 | 237 ft | 7 kts | 353° |
| 2026-05-01 12:41 | 41.23703 | -8.67836 | 235 ft | 33 kts | 349° |
| 2026-05-01 12:42 | 41.24201 | -8.67962 | 221 ft | 113 kts | 348° |
| 2026-05-01 12:42 | 41.25215 | -8.68234 | 202 ft | 174 kts | 349° |
| 2026-05-01 12:42 | 41.26384 | -8.68543 | 841 ft | 173 kts | 347° |
| 2026-05-01 12:42 | 41.27569 | -8.68859 | 1551 ft | 178 kts | 347° |
| 2026-05-01 12:43 | 41.28844 | -8.69204 | 2090 ft | 195 kts | 347° |
| 2026-05-01 12:43 | 41.30228 | -8.69584 | 2784 ft | 211 kts | 348° |
| 2026-05-01 12:43 | 41.31720 | -8.69949 | 3518 ft | 223 kts | 349° |
| 2026-05-01 12:43 | 41.33326 | -8.70329 | 4051 ft | 247 kts | 349° |
| 2026-05-01 12:44 | 41.35107 | -8.70763 | 4550 ft | 272 kts | 349° |
| 2026-05-01 12:44 | 41.36993 | -8.71275 | 5389 ft | 281 kts | 348° |
| 2026-05-01 12:44 | 41.40842 | -8.71278 | 7267 ft | 285 kts | 27° |
| 2026-05-01 12:45 | 41.43320 | -8.67378 | 8995 ft | 285 kts | 76° |
| 2026-05-01 12:45 | 41.43713 | -8.64778 | 9842 ft | 288 kts | 82° |
| 2026-05-01 12:45 | 41.44050 | -8.62110 | 10528 ft | 299 kts | 82° |
| 2026-05-01 12:46 | 41.44282 | -8.59282 | 10933 ft | 316 kts | 93° |
| 2026-05-01 12:46 | 41.44055 | -8.56307 | 11430 ft | 328 kts | 101° |
| 2026-05-01 12:46 | 41.43716 | -8.53275 | 12170 ft | 334 kts | 101° |
| 2026-05-01 12:46 | 41.43376 | -8.50184 | 12924 ft | 339 kts | 101° |
| 2026-05-01 12:47 | 41.43043 | -8.47058 | 13690 ft | 343 kts | 101° |
| 2026-05-01 12:47 | 41.42710 | -8.43896 | 14451 ft | 347 kts | 101° |
| 2026-05-01 12:47 | 41.42376 | -8.40683 | 15205 ft | 351 kts | 101° |
| 2026-05-01 12:47 | 41.42045 | -8.37446 | 15931 ft | 355 kts | 101° |
| 2026-05-01 12:48 | 41.41710 | -8.34160 | 16641 ft | 359 kts | 101° |
| 2026-05-01 12:48 | 41.41487 | -8.31971 | 17108 ft | 362 kts | 101° |
| 2026-05-01 12:48 | 41.41146 | -8.28633 | 17796 ft | 366 kts | 101° |
| 2026-05-01 12:48 | 41.40804 | -8.25258 | 18464 ft | 370 kts | 101° |
| 2026-05-01 12:49 | 41.40452 | -8.21846 | 19101 ft | 374 kts | 101° |
| 2026-05-01 12:49 | 41.40097 | -8.18400 | 19722 ft | 378 kts | 101° |
| 2026-05-01 12:49 | 41.39740 | -8.14913 | 20309 ft | 383 kts | 101° |
| 2026-05-01 12:49 | 41.39375 | -8.11380 | 20893 ft | 387 kts | 101° |
| 2026-05-01 12:50 | 41.39001 | -8.07814 | 21461 ft | 391 kts | 101° |
| 2026-05-01 12:50 | 41.38624 | -8.04207 | 22008 ft | 395 kts | 101° |
| 2026-05-01 12:50 | 41.38244 | -8.00558 | 22533 ft | 399 kts | 101° |
| 2026-05-01 12:50 | 41.37860 | -7.96886 | 23050 ft | 403 kts | 101° |
| 2026-05-01 12:51 | 41.37464 | -7.93172 | 23567 ft | 407 kts | 101° |
| 2026-05-01 12:51 | 41.37064 | -7.89421 | 24062 ft | 411 kts | 101° |
| 2026-05-01 12:51 | 41.36268 | -7.81833 | 25031 ft | 418 kts | 101° |
| 2026-05-01 12:52 | 41.35951 | -7.77970 | 25482 ft | 423 kts | 94° |
| 2026-05-01 12:52 | 41.36463 | -7.70082 | 26369 ft | 432 kts | 85° |
| 2026-05-01 12:52 | 41.36826 | -7.66101 | 26785 ft | 435 kts | 85° |
| 2026-05-01 12:53 | 41.37559 | -7.58050 | 27603 ft | 440 kts | 85° |
| 2026-05-01 12:53 | 41.37914 | -7.53993 | 27993 ft | 443 kts | 85° |
| 2026-05-01 12:53 | 41.38281 | -7.49902 | 28372 ft | 446 kts | 85° |
| 2026-05-01 12:54 | 41.38642 | -7.45793 | 28731 ft | 449 kts | 85° |
| 2026-05-01 12:54 | 41.39371 | -7.37495 | 29433 ft | 454 kts | 85° |
| 2026-05-01 12:54 | 41.39731 | -7.33305 | 29771 ft | 456 kts | 85° |
| 2026-05-01 12:55 | 41.40449 | -7.24914 | 30396 ft | 461 kts | 85° |
| 2026-05-01 12:55 | 41.40805 | -7.20676 | 30694 ft | 463 kts | 85° |
| 2026-05-01 12:55 | 41.41163 | -7.16392 | 31012 ft | 465 kts | 85° |
| 2026-05-01 12:56 | 41.41517 | -7.12103 | 31302 ft | 467 kts | 85° |
| 2026-05-01 12:56 | 41.41864 | -7.07800 | 31594 ft | 469 kts | 86° |
| 2026-05-01 12:56 | 41.42219 | -7.03466 | 31880 ft | 471 kts | 85° |
| 2026-05-01 12:56 | 41.42582 | -6.99123 | 32155 ft | 472 kts | 85° |
| 2026-05-01 12:57 | 41.42938 | -6.94787 | 32506 ft | 471 kts | 85° |
| 2026-05-01 12:57 | 41.43669 | -6.86128 | 33190 ft | 469 kts | 85° |
| 2026-05-01 12:57 | 41.44029 | -6.81805 | 33509 ft | 468 kts | 85° |
| 2026-05-01 12:58 | 41.44388 | -6.77499 | 33827 ft | 467 kts | 86° |
| 2026-05-01 12:58 | 41.44734 | -6.73201 | 34142 ft | 466 kts | 86° |
| 2026-05-01 12:58 | 41.45077 | -6.68912 | 34427 ft | 465 kts | 86° |
| 2026-05-01 12:59 | 41.45756 | -6.60348 | 34951 ft | 464 kts | 86° |
| 2026-05-01 12:59 | 41.46100 | -6.56065 | 35197 ft | 464 kts | 86° |
| 2026-05-01 12:59 | 41.46779 | -6.47509 | 35641 ft | 464 kts | 86° |
| 2026-05-01 13:00 | 41.47437 | -6.38964 | 36059 ft | 463 kts | 86° |
| 2026-05-01 13:00 | 41.47765 | -6.34689 | 36198 ft | 462 kts | 86° |
| 2026-05-01 13:01 | 41.48822 | -6.26251 | 36189 ft | 463 kts | 72° |
| 2026-05-01 13:01 | 41.49958 | -6.22231 | 36180 ft | 463 kts | 69° |
| 2026-05-01 13:02 | 41.53644 | -6.10318 | 36171 ft | 463 kts | 69° |
| 2026-05-01 13:07 | 41.79653 | -5.22798 | 36170 ft | 460 kts | 69° |
| 2026-05-01 13:08 | 41.81987 | -5.14823 | 36169 ft | 459 kts | 69° |
| 2026-05-01 13:08 | 41.84306 | -5.06848 | 36167 ft | 459 kts | 69° |
| 2026-05-01 13:09 | 41.86612 | -4.98859 | 36171 ft | 459 kts | 69° |
| 2026-05-01 13:09 | 41.88939 | -4.90890 | 36172 ft | 458 kts | 68° |
| 2026-05-01 13:10 | 41.91243 | -4.82914 | 36170 ft | 458 kts | 69° |
| 2026-05-01 13:10 | 41.93511 | -4.74929 | 36171 ft | 457 kts | 69° |
| 2026-05-01 13:11 | 41.95805 | -4.66963 | 36170 ft | 457 kts | 68° |
| 2026-05-01 13:11 | 41.98137 | -4.59024 | 36170 ft | 457 kts | 68° |
| 2026-05-01 13:12 | 42.00428 | -4.51065 | 36170 ft | 457 kts | 68° |
| 2026-05-01 13:12 | 42.02689 | -4.43100 | 36171 ft | 456 kts | 68° |
| 2026-05-01 13:13 | 42.04944 | -4.35128 | 36169 ft | 455 kts | 68° |
| 2026-05-01 13:13 | 42.07195 | -4.27171 | 36171 ft | 455 kts | 68° |
| 2026-05-01 13:14 | 42.09435 | -4.19194 | 36169 ft | 455 kts | 68° |
| 2026-05-01 13:14 | 42.11674 | -4.11223 | 36169 ft | 455 kts | 68° |
| 2026-05-01 13:15 | 42.13901 | -4.03247 | 36171 ft | 455 kts | 69° |
| 2026-05-01 13:15 | 42.16112 | -3.95315 | 36188 ft | 455 kts | 68° |
| 2026-05-01 13:16 | 42.18337 | -3.87334 | 36198 ft | 455 kts | 69° |
| 2026-05-01 13:16 | 42.20552 | -3.79345 | 36199 ft | 455 kts | 69° |
| 2026-05-01 13:17 | 42.24949 | -3.63319 | 36201 ft | 455 kts | 69° |
| 2026-05-01 13:18 | 42.28228 | -3.51295 | 36200 ft | 455 kts | 69° |
| 2026-05-01 13:18 | 42.30442 | -3.43283 | 36200 ft | 455 kts | 69° |
| 2026-05-01 13:19 | 42.32600 | -3.35242 | 36200 ft | 455 kts | 70° |
| 2026-05-01 13:20 | 42.35861 | -3.23217 | 36200 ft | 454 kts | 70° |
| 2026-05-01 13:20 | 42.38020 | -3.15190 | 36188 ft | 454 kts | 70° |
| 2026-05-01 13:21 | 42.41239 | -3.03151 | 36189 ft | 454 kts | 70° |
| 2026-05-01 13:21 | 42.43402 | -2.95129 | 36179 ft | 453 kts | 70° |
| 2026-05-01 13:22 | 42.45215 | -2.86990 | 36171 ft | 452 kts | 83° |
| 2026-05-01 13:22 | 42.45488 | -2.78507 | 36174 ft | 451 kts | 90° |
| 2026-05-01 13:23 | 42.45568 | -2.70015 | 36168 ft | 451 kts | 90° |
| 2026-05-01 13:23 | 42.45676 | -2.61589 | 36177 ft | 451 kts | 90° |
| 2026-05-01 13:24 | 42.45769 | -2.53104 | 36172 ft | 450 kts | 90° |
| 2026-05-01 13:25 | 42.45925 | -2.40407 | 36171 ft | 449 kts | 90° |
| 2026-05-01 13:25 | 42.46178 | -2.31960 | 36166 ft | 450 kts | 83° |
| 2026-05-01 13:26 | 42.47508 | -2.23662 | 36171 ft | 451 kts | 78° |
| 2026-05-01 13:26 | 42.48929 | -2.15376 | 36170 ft | 451 kts | 78° |
| 2026-05-01 13:27 | 42.50307 | -2.07077 | 36175 ft | 451 kts | 78° |
| 2026-05-01 13:27 | 42.52363 | -1.94633 | 36182 ft | 451 kts | 79° |
| 2026-05-01 13:28 | 42.54393 | -1.82198 | 36186 ft | 450 kts | 79° |
| 2026-05-01 13:29 | 42.57062 | -1.65633 | 36193 ft | 450 kts | 79° |
| 2026-05-01 13:31 | 42.61039 | -1.40750 | 36201 ft | 450 kts | 79° |
| 2026-05-01 13:32 | 42.64293 | -1.19995 | 36201 ft | 450 kts | 79° |
| 2026-05-01 13:33 | 42.67552 | -0.99204 | 36202 ft | 450 kts | 79° |
| 2026-05-01 13:34 | 42.70140 | -0.82574 | 36211 ft | 449 kts | 79° |
| 2026-05-01 13:35 | 42.72052 | -0.70092 | 36210 ft | 449 kts | 79° |
| 2026-05-01 13:36 | 42.73943 | -0.57670 | 36211 ft | 449 kts | 79° |
| 2026-05-01 13:36 | 42.75814 | -0.45166 | 36209 ft | 449 kts | 80° |
| 2026-05-01 13:37 | 42.76850 | -0.38246 | 36202 ft | 450 kts | 80° |
| 2026-05-01 13:37 | 42.78096 | -0.29909 | 36211 ft | 449 kts | 80° |
| 2026-05-01 13:38 | 42.80797 | -0.17735 | 36207 ft | 452 kts | 59° |
| 2026-05-01 13:39 | 42.84642 | -0.10956 | 36207 ft | 452 kts | 50° |
| 2026-05-01 13:39 | 42.88674 | -0.04369 | 36201 ft | 453 kts | 51° |
| 2026-05-01 13:40 | 42.92670 | 0.02268 | 36202 ft | 453 kts | 51° |
| 2026-05-01 13:40 | 42.96639 | 0.08918 | 36198 ft | 451 kts | 51° |
| 2026-05-01 13:41 | 43.00594 | 0.15569 | 36199 ft | 451 kts | 51° |
| 2026-05-01 13:41 | 43.04553 | 0.22205 | 36199 ft | 450 kts | 51° |
| 2026-05-01 13:42 | 43.08499 | 0.28853 | 36199 ft | 450 kts | 51° |
| 2026-05-01 13:42 | 43.12447 | 0.35518 | 36199 ft | 450 kts | 51° |
| 2026-05-01 13:43 | 43.16373 | 0.42193 | 36200 ft | 450 kts | 51° |
| 2026-05-01 13:43 | 43.20309 | 0.48871 | 36201 ft | 450 kts | 51° |
| 2026-05-01 13:44 | 43.24246 | 0.55552 | 36208 ft | 450 kts | 51° |
| 2026-05-01 13:44 | 43.28168 | 0.62246 | 36210 ft | 450 kts | 52° |
| 2026-05-01 13:45 | 43.32095 | 0.68947 | 36211 ft | 450 kts | 51° |
| 2026-05-01 13:45 | 43.36017 | 0.75639 | 36216 ft | 449 kts | 52° |
| 2026-05-01 13:46 | 43.39905 | 0.82348 | 36219 ft | 449 kts | 52° |
| 2026-05-01 13:46 | 43.43840 | 0.89047 | 36221 ft | 449 kts | 52° |
| 2026-05-01 13:47 | 43.47751 | 0.95752 | 36221 ft | 449 kts | 51° |
| 2026-05-01 13:47 | 43.51637 | 1.02428 | 36221 ft | 449 kts | 52° |
| 2026-05-01 13:48 | 43.55524 | 1.09168 | 36229 ft | 449 kts | 52° |
| 2026-05-01 13:48 | 43.59397 | 1.15911 | 36230 ft | 449 kts | 52° |
| 2026-05-01 13:49 | 43.63286 | 1.22658 | 36231 ft | 449 kts | 52° |
| 2026-05-01 13:49 | 43.67179 | 1.29405 | 36232 ft | 449 kts | 52° |
| 2026-05-01 13:50 | 43.70937 | 1.36301 | 36230 ft | 449 kts | 54° |
| 2026-05-01 13:50 | 43.74622 | 1.43263 | 36230 ft | 449 kts | 54° |
| 2026-05-01 13:51 | 43.78324 | 1.50220 | 36231 ft | 449 kts | 53° |
| 2026-05-01 13:51 | 43.82033 | 1.57154 | 36231 ft | 449 kts | 54° |
| 2026-05-01 13:52 | 43.85736 | 1.64111 | 36240 ft | 449 kts | 54° |
| 2026-05-01 13:52 | 43.89427 | 1.71092 | 36240 ft | 448 kts | 54° |
| 2026-05-01 13:53 | 43.93103 | 1.78054 | 36240 ft | 447 kts | 54° |
| 2026-05-01 13:53 | 43.98494 | 1.88628 | 36249 ft | 447 kts | 55° |
| 2026-05-01 13:54 | 44.02025 | 1.95741 | 36252 ft | 447 kts | 56° |
| 2026-05-01 13:54 | 44.05575 | 2.02839 | 36259 ft | 447 kts | 55° |
| 2026-05-01 13:55 | 44.09120 | 2.09949 | 36261 ft | 446 kts | 56° |
| 2026-05-01 13:55 | 44.12637 | 2.17065 | 36270 ft | 446 kts | 56° |
| 2026-05-01 13:56 | 44.16158 | 2.24183 | 36272 ft | 446 kts | 56° |
| 2026-05-01 13:56 | 44.19671 | 2.31322 | 36280 ft | 447 kts | 56° |
| 2026-05-01 13:57 | 44.23176 | 2.38470 | 36287 ft | 447 kts | 56° |
| 2026-05-01 13:57 | 44.26688 | 2.45642 | 36288 ft | 448 kts | 56° |
| 2026-05-01 13:58 | 44.30191 | 2.52823 | 36289 ft | 447 kts | 56° |
| 2026-05-01 13:58 | 44.33675 | 2.60035 | 36290 ft | 448 kts | 56° |
| 2026-05-01 13:59 | 44.37192 | 2.67228 | 36291 ft | 448 kts | 55° |
| 2026-05-01 13:59 | 44.40689 | 2.74383 | 36290 ft | 449 kts | 55° |
| 2026-05-01 14:00 | 44.44223 | 2.81662 | 36290 ft | 449 kts | 55° |
| 2026-05-01 14:00 | 44.47725 | 2.88914 | 36289 ft | 450 kts | 55° |
| 2026-05-01 14:01 | 44.51216 | 2.96186 | 36290 ft | 450 kts | 56° |
| 2026-05-01 14:01 | 44.54674 | 3.03430 | 36296 ft | 451 kts | 56° |
| 2026-05-01 14:02 | 44.58184 | 3.10722 | 36300 ft | 451 kts | 55° |
| 2026-05-01 14:02 | 44.61570 | 3.18138 | 36300 ft | 451 kts | 60° |
| 2026-05-01 14:03 | 44.64651 | 3.25822 | 36300 ft | 452 kts | 60° |
| 2026-05-01 14:03 | 44.67737 | 3.33508 | 36320 ft | 452 kts | 60° |
| 2026-05-01 14:04 | 44.70813 | 3.41208 | 36307 ft | 452 kts | 59° |
| 2026-05-01 14:04 | 44.73388 | 3.47604 | 36311 ft | 452 kts | 59° |
| 2026-05-01 14:05 | 44.76973 | 3.56612 | 36309 ft | 452 kts | 60° |
| 2026-05-01 14:05 | 44.80040 | 3.64350 | 36311 ft | 452 kts | 60° |
| 2026-05-01 14:06 | 44.83108 | 3.72073 | 36313 ft | 452 kts | 60° |
| 2026-05-01 14:06 | 44.86159 | 3.79812 | 36315 ft | 452 kts | 60° |
| 2026-05-01 14:07 | 44.89204 | 3.87564 | 36308 ft | 452 kts | 60° |
| 2026-05-01 14:08 | 44.93758 | 3.99211 | 36319 ft | 452 kts | 60° |
| 2026-05-01 14:08 | 44.96794 | 4.06974 | 36300 ft | 451 kts | 60° |
| 2026-05-01 14:09 | 44.99794 | 4.14666 | 36299 ft | 450 kts | 60° |
| 2026-05-01 14:09 | 45.02800 | 4.22418 | 36300 ft | 450 kts | 60° |
| 2026-05-01 14:10 | 45.05799 | 4.30176 | 36300 ft | 449 kts | 60° |
| 2026-05-01 14:10 | 45.08800 | 4.37932 | 36284 ft | 449 kts | 60° |
| 2026-05-01 14:11 | 45.11793 | 4.45701 | 36279 ft | 449 kts | 60° |
| 2026-05-01 14:11 | 45.16267 | 4.57361 | 36281 ft | 449 kts | 60° |
| 2026-05-01 14:12 | 45.19241 | 4.65127 | 36279 ft | 448 kts | 60° |
| 2026-05-01 14:12 | 45.22207 | 4.72899 | 36280 ft | 448 kts | 60° |
| 2026-05-01 14:13 | 45.24665 | 4.79366 | 36281 ft | 448 kts | 60° |
| 2026-05-01 14:13 | 45.28112 | 4.88458 | 36280 ft | 447 kts | 60° |
| 2026-05-01 14:14 | 45.31051 | 4.96236 | 36283 ft | 447 kts | 61° |
| 2026-05-01 14:14 | 45.33979 | 5.04019 | 36279 ft | 446 kts | 60° |
| 2026-05-01 14:15 | 45.36904 | 5.11793 | 36267 ft | 446 kts | 61° |
| 2026-05-01 14:15 | 45.39819 | 5.19564 | 36262 ft | 445 kts | 61° |
| 2026-05-01 14:16 | 45.42723 | 5.27328 | 36261 ft | 445 kts | 61° |
| 2026-05-01 14:16 | 45.45616 | 5.35095 | 36261 ft | 444 kts | 61° |
| 2026-05-01 14:17 | 45.48597 | 5.42788 | 36257 ft | 442 kts | 54° |
| 2026-05-01 14:17 | 45.50577 | 5.46113 | 36259 ft | 440 kts | 43° |
| 2026-05-01 14:17 | 45.52834 | 5.49047 | 36264 ft | 439 kts | 40° |
| 2026-05-01 14:18 | 45.57421 | 5.54797 | 36261 ft | 439 kts | 40° |
| 2026-05-01 14:18 | 45.61210 | 5.59618 | 36260 ft | 439 kts | 40° |
| 2026-05-01 14:19 | 45.66489 | 5.66376 | 36261 ft | 438 kts | 41° |
| 2026-05-01 14:19 | 45.71024 | 5.72197 | 36261 ft | 438 kts | 41° |
| 2026-05-01 14:20 | 45.77827 | 5.80935 | 36260 ft | 438 kts | 41° |
| 2026-05-01 14:21 | 45.82349 | 5.86781 | 36261 ft | 438 kts | 41° |
| 2026-05-01 14:21 | 45.86863 | 5.92638 | 36259 ft | 438 kts | 42° |
| 2026-05-01 14:22 | 45.93607 | 6.01453 | 36260 ft | 437 kts | 41° |
| 2026-05-01 14:22 | 45.98121 | 6.07309 | 36261 ft | 437 kts | 41° |
| 2026-05-01 14:23 | 46.02653 | 6.13138 | 36262 ft | 437 kts | 40° |
| 2026-05-01 14:23 | 46.07177 | 6.18976 | 36270 ft | 437 kts | 41° |
| 2026-05-01 14:24 | 46.11551 | 6.25052 | 36279 ft | 437 kts | 44° |
| 2026-05-01 14:24 | 46.15139 | 6.30182 | 36280 ft | 437 kts | 44° |
| 2026-05-01 14:25 | 46.19472 | 6.36338 | 36279 ft | 437 kts | 44° |
| 2026-05-01 14:25 | 46.23780 | 6.42497 | 36281 ft | 436 kts | 44° |
| 2026-05-01 14:26 | 46.30235 | 6.51750 | 36280 ft | 435 kts | 44° |
| 2026-05-01 14:27 | 46.34535 | 6.57902 | 36274 ft | 434 kts | 44° |
| 2026-05-01 14:27 | 46.38847 | 6.64024 | 36272 ft | 434 kts | 44° |
| 2026-05-01 14:28 | 46.45282 | 6.73211 | 36270 ft | 432 kts | 44° |
| 2026-05-01 14:28 | 46.49542 | 6.79362 | 36270 ft | 432 kts | 44° |
| 2026-05-01 14:29 | 46.53792 | 6.85516 | 36274 ft | 431 kts | 44° |
| 2026-05-01 14:30 | 46.61552 | 6.98771 | 36280 ft | 430 kts | 50° |
| 2026-05-01 14:31 | 46.67182 | 7.08930 | 36280 ft | 429 kts | 50° |
| 2026-05-01 14:31 | 46.70919 | 7.15701 | 36281 ft | 429 kts | 50° |
| 2026-05-01 14:32 | 46.74650 | 7.22464 | 36277 ft | 428 kts | 50° |
| 2026-05-01 14:32 | 46.78385 | 7.29253 | 36270 ft | 428 kts | 50° |
| 2026-05-01 14:33 | 46.82101 | 7.36022 | 36271 ft | 427 kts | 50° |
| 2026-05-01 14:33 | 46.85812 | 7.42797 | 36269 ft | 427 kts | 50° |
| 2026-05-01 14:34 | 46.89481 | 7.49555 | 36262 ft | 427 kts | 50° |
| 2026-05-01 14:34 | 46.93169 | 7.56345 | 36260 ft | 426 kts | 50° |
| 2026-05-01 14:35 | 46.96855 | 7.63129 | 36261 ft | 426 kts | 51° |
| 2026-05-01 14:35 | 47.00522 | 7.69961 | 36261 ft | 427 kts | 51° |
| 2026-05-01 14:36 | 47.04205 | 7.76769 | 36267 ft | 425 kts | 50° |
| 2026-05-01 14:36 | 47.07866 | 7.83588 | 36271 ft | 426 kts | 51° |
| 2026-05-01 14:37 | 47.11510 | 7.90428 | 36270 ft | 425 kts | 51° |
| 2026-05-01 14:37 | 47.14968 | 7.97464 | 36278 ft | 426 kts | 56° |
| 2026-05-01 14:38 | 47.18111 | 8.04854 | 36282 ft | 425 kts | 57° |
| 2026-05-01 14:38 | 47.21213 | 8.12151 | 36286 ft | 421 kts | 56° |
| 2026-05-01 14:39 | 47.24336 | 8.19468 | 36290 ft | 421 kts | 57° |
| 2026-05-01 14:39 | 47.27445 | 8.26786 | 36293 ft | 421 kts | 57° |
| 2026-05-01 14:40 | 47.30369 | 8.34257 | 36294 ft | 423 kts | 66° |
| 2026-05-01 14:40 | 47.32260 | 8.42477 | 36316 ft | 423 kts | 70° |
| 2026-05-01 14:41 | 47.34062 | 8.50726 | 36301 ft | 423 kts | 70° |
| 2026-05-01 14:41 | 47.35872 | 8.58991 | 36317 ft | 423 kts | 70° |
| 2026-05-01 14:42 | 47.37684 | 8.67243 | 36323 ft | 422 kts | 70° |
| 2026-05-01 14:42 | 47.39500 | 8.75487 | 36325 ft | 422 kts | 70° |
| 2026-05-01 14:43 | 47.41278 | 8.83674 | 36319 ft | 420 kts | 70° |
| 2026-05-01 14:43 | 47.43049 | 8.91891 | 36315 ft | 419 kts | 70° |
| 2026-05-01 14:44 | 47.44818 | 9.00090 | 36328 ft | 418 kts | 70° |
| 2026-05-01 14:44 | 47.47427 | 9.12391 | 36316 ft | 418 kts | 70° |
| 2026-05-01 14:45 | 47.50075 | 9.24640 | 36296 ft | 417 kts | 70° |
| 2026-05-01 14:46 | 47.51821 | 9.32812 | 36292 ft | 417 kts | 70° |
| 2026-05-01 14:46 | 47.54411 | 9.45101 | 36290 ft | 417 kts | 70° |
| 2026-05-01 14:47 | 47.56128 | 9.53276 | 36290 ft | 416 kts | 70° |
| 2026-05-01 14:48 | 47.58458 | 9.65648 | 36284 ft | 419 kts | 81° |
| 2026-05-01 14:48 | 47.58126 | 9.78590 | 36292 ft | 420 kts | 91° |
| 2026-05-01 14:49 | 47.57370 | 9.95825 | 36289 ft | 419 kts | 90° |
| 2026-05-01 14:50 | 47.56659 | 10.12978 | 34955 ft | 424 kts | 90° |
| 2026-05-01 14:51 | 47.56467 | 10.17385 | 33766 ft | 434 kts | 90° |
| 2026-05-01 14:51 | 47.56080 | 10.26336 | 32033 ft | 434 kts | 90° |
| 2026-05-01 14:52 | 47.55685 | 10.35194 | 30580 ft | 428 kts | 90° |
| 2026-05-01 14:52 | 47.55488 | 10.39586 | 29807 ft | 429 kts | 90° |
| 2026-05-01 14:52 | 47.55089 | 10.48400 | 28235 ft | 428 kts | 90° |
| 2026-05-01 14:53 | 47.55083 | 10.52775 | 27502 ft | 423 kts | 82° |
| 2026-05-01 14:53 | 47.55663 | 10.56996 | 26777 ft | 417 kts | 70° |
| 2026-05-01 14:53 | 47.56848 | 10.60860 | 26083 ft | 411 kts | 59° |
| 2026-05-01 14:53 | 47.58307 | 10.64491 | 25402 ft | 407 kts | 57° |
| 2026-05-01 14:54 | 47.59773 | 10.68059 | 24694 ft | 404 kts | 58° |
| 2026-05-01 14:54 | 47.61218 | 10.71611 | 23987 ft | 401 kts | 58° |
| 2026-05-01 14:54 | 47.62651 | 10.75137 | 23304 ft | 398 kts | 58° |
| 2026-05-01 14:54 | 47.64071 | 10.78633 | 22626 ft | 394 kts | 58° |
| 2026-05-01 14:55 | 47.65474 | 10.82108 | 21915 ft | 391 kts | 58° |
| 2026-05-01 14:55 | 47.66854 | 10.85559 | 21213 ft | 388 kts | 58° |
| 2026-05-01 14:55 | 47.68362 | 10.88859 | 20524 ft | 384 kts | 50° |
| 2026-05-01 14:55 | 47.70260 | 10.91612 | 19889 ft | 380 kts | 40° |
| 2026-05-01 14:56 | 47.72317 | 10.94058 | 19275 ft | 377 kts | 39° |
| 2026-05-01 14:56 | 47.74367 | 10.96449 | 18674 ft | 374 kts | 39° |
| 2026-05-01 14:56 | 47.76374 | 10.98807 | 18122 ft | 370 kts | 39° |
| 2026-05-01 14:56 | 47.78361 | 11.01164 | 17614 ft | 361 kts | 39° |
| 2026-05-01 14:57 | 47.80381 | 11.03420 | 16970 ft | 357 kts | 32° |
| 2026-05-01 14:57 | 47.85047 | 11.05823 | 15626 ft | 356 kts | 11° |
| 2026-05-01 14:57 | 47.87473 | 11.06157 | 14863 ft | 354 kts | 5° |
| 2026-05-01 14:58 | 47.89927 | 11.06301 | 14037 ft | 351 kts | 4° |
| 2026-05-01 14:58 | 47.92356 | 11.06410 | 13190 ft | 347 kts | 4° |
| 2026-05-01 14:58 | 47.94760 | 11.06514 | 12239 ft | 343 kts | 4° |
| 2026-05-01 14:58 | 47.97133 | 11.06622 | 11289 ft | 340 kts | 4° |
| 2026-05-01 14:59 | 47.99443 | 11.06732 | 10789 ft | 324 kts | 4° |
| 2026-05-01 14:59 | 48.01642 | 11.06837 | 10415 ft | 307 kts | 4° |
| 2026-05-01 14:59 | 48.03729 | 11.06928 | 10111 ft | 294 kts | 4° |
| 2026-05-01 14:59 | 48.05741 | 11.07008 | 9663 ft | 287 kts | 4° |
| 2026-05-01 15:00 | 48.09713 | 11.07171 | 8708 ft | 285 kts | 4° |
| 2026-05-01 15:00 | 48.11685 | 11.07307 | 8234 ft | 283 kts | 11° |
| 2026-05-01 15:00 | 48.13508 | 11.08277 | 7791 ft | 276 kts | 30° |
| 2026-05-01 15:01 | 48.15160 | 11.09723 | 7393 ft | 273 kts | 33° |
| 2026-05-01 15:01 | 48.16766 | 11.11208 | 7014 ft | 270 kts | 34° |
| 2026-05-01 15:01 | 48.18333 | 11.12658 | 6793 ft | 259 kts | 34° |
| 2026-05-01 15:01 | 48.19834 | 11.14045 | 6621 ft | 248 kts | 34° |
| 2026-05-01 15:02 | 48.21291 | 11.15387 | 6320 ft | 244 kts | 34° |
| 2026-05-01 15:02 | 48.21780 | 11.15838 | 6203 ft | 244 kts | 34° |
| 2026-05-01 15:02 | 48.24166 | 11.18029 | 5606 ft | 240 kts | 34° |
| 2026-05-01 15:02 | 48.25591 | 11.19338 | 5257 ft | 240 kts | 34° |
| 2026-05-01 15:03 | 48.26928 | 11.20793 | 4996 ft | 236 kts | 48° |
| 2026-05-01 15:03 | 48.27983 | 11.22675 | 4954 ft | 235 kts | 53° |
| 2026-05-01 15:03 | 48.28986 | 11.24614 | 4954 ft | 236 kts | 54° |
| 2026-05-01 15:03 | 48.29908 | 11.26633 | 4967 ft | 234 kts | 65° |
| 2026-05-01 15:04 | 48.30425 | 11.28953 | 4978 ft | 234 kts | 77° |
| 2026-05-01 15:04 | 48.30689 | 11.31364 | 4977 ft | 234 kts | 84° |
| 2026-05-01 15:04 | 48.30869 | 11.33791 | 4985 ft | 234 kts | 83° |
| 2026-05-01 15:04 | 48.31057 | 11.36217 | 4978 ft | 234 kts | 83° |
| 2026-05-01 15:05 | 48.31245 | 11.38645 | 4972 ft | 234 kts | 83° |
| 2026-05-01 15:05 | 48.31433 | 11.41069 | 4973 ft | 232 kts | 83° |
| 2026-05-01 15:05 | 48.31612 | 11.43393 | 4966 ft | 216 kts | 83° |
| 2026-05-01 15:05 | 48.31784 | 11.45622 | 4958 ft | 214 kts | 83° |
| 2026-05-01 15:06 | 48.31948 | 11.47741 | 4925 ft | 199 kts | 83° |
| 2026-05-01 15:06 | 48.32103 | 11.49746 | 4760 ft | 191 kts | 83° |
| 2026-05-01 15:06 | 48.32256 | 11.51724 | 4534 ft | 190 kts | 83° |
| 2026-05-01 15:06 | 48.32408 | 11.53695 | 4288 ft | 190 kts | 83° |
| 2026-05-01 15:07 | 48.32556 | 11.55615 | 4084 ft | 180 kts | 83° |
| 2026-05-01 15:07 | 48.32697 | 11.57435 | 3847 ft | 172 kts | 83° |
| 2026-05-01 15:07 | 48.32833 | 11.59197 | 3636 ft | 166 kts | 83° |
| 2026-05-01 15:07 | 48.32962 | 11.60876 | 3402 ft | 158 kts | 83° |
| 2026-05-01 15:08 | 48.33086 | 11.62476 | 3172 ft | 149 kts | 83° |
| 2026-05-01 15:08 | 48.33201 | 11.63965 | 2952 ft | 139 kts | 83° |
| 2026-05-01 15:08 | 48.33305 | 11.65316 | 2781 ft | 126 kts | 83° |
| 2026-05-01 15:08 | 48.33405 | 11.66624 | 2631 ft | 126 kts | 83° |
| 2026-05-01 15:09 | 48.33501 | 11.67932 | 2474 ft | 125 kts | 84° |
| 2026-05-01 15:09 | 48.33599 | 11.69232 | 2291 ft | 125 kts | 82° |
| 2026-05-01 15:09 | 48.33711 | 11.70533 | 2127 ft | 126 kts | 83° |
| 2026-05-01 15:09 | 48.33809 | 11.71843 | 1952 ft | 127 kts | 84° |
| 2026-05-01 15:10 | 48.33909 | 11.73157 | 1787 ft | 126 kts | 82° |
| 2026-05-01 15:10 | 48.34122 | 11.75776 | 1487 ft | 123 kts | 84° |
| 2026-05-01 15:10 | 48.34203 | 11.76846 | 1489 ft | 84 kts | 83° |
| 2026-05-01 15:11 | 48.34257 | 11.77559 | 1488 ft | 56 kts | 83° |
| 2026-05-01 15:11 | 48.34340 | 11.78618 | 1481 ft | 50 kts | 83° |
| 2026-05-01 15:11 | 48.34378 | 11.79022 | 1489 ft | 30 kts | 68° |
| 2026-05-01 15:12 | 48.34485 | 11.79260 | 1486 ft | 22 kts | 53° |
| 2026-05-01 15:12 | 48.34631 | 11.79554 | 1483 ft | 6 kts | 51° |
| 2026-05-01 15:12 | 48.34662 | 11.79615 | 1491 ft | 9 kts | 54° |
| 2026-05-01 15:13 | 48.34891 | 11.79687 | 1483 ft | 16 kts | 353° |
| 2026-05-01 15:14 | 48.35076 | 11.79586 | 1491 ft | 15 kts | 353° |
| 2026-05-01 15:14 | 48.35191 | 11.79566 | 1482 ft | 18 kts | 353° |
| 2026-05-01 15:14 | 48.35464 | 11.79522 | 1482 ft | 21 kts | 354° |
| 2026-05-01 15:15 | 48.35605 | 11.79421 | 1491 ft | 9 kts | 262° |
| 2026-05-01 15:15 | 48.35596 | 11.79298 | 1491 ft | 0 kts | 263° |